createdAt,value
2019-01-11T00:00:02.536Z,11.07
2019-01-11T00:05:03.320Z,8.70
2019-01-11T00:10:02.723Z,10.17
2019-01-11T00:15:03.068Z,10.13
2019-01-11T00:20:03.690Z,13.23
2019-01-11T00:25:02.328Z,9.73
2019-01-11T00:30:02.779Z,11.63
2019-01-11T00:35:03.212Z,13.50
2019-01-11T00:40:01.863Z,0
2019-01-11T00:45:03.276Z,12.07
2019-01-11T00:50:02.726Z,11.80
2019-01-11T00:55:03.141Z,12.27
2019-01-11T01:00:02.472Z,13.53
2019-01-11T01:05:02.488Z,12.50
2019-01-11T01:10:02.909Z,12.67
2019-01-11T01:15:03.324Z,13.03
2019-01-11T01:20:02.686Z,17.07
2019-01-11T01:25:03.132Z,13.47
2019-01-11T01:30:02.543Z,16.33
2019-01-11T01:35:02.996Z,20.43
2019-01-11T01:40:02.416Z,16.07
2019-01-11T01:45:02.762Z,16.60
2019-01-11T01:50:03.130Z,23.37
2019-01-11T01:55:02.514Z,19.17
2019-01-11T02:00:02.957Z,23.17
2019-01-11T02:05:03.301Z,17.37
2019-01-11T02:10:02.710Z,15.80
2019-01-11T02:15:03.056Z,15.37
2019-01-11T02:20:02.476Z,17.00
2019-01-11T02:25:02.821Z,17.13
2019-01-11T02:30:03.172Z,20.30
2019-01-11T02:35:02.574Z,19.60
2019-01-11T02:40:03.024Z,18.48
2019-01-11T02:45:02.488Z,16.73
2019-01-11T02:50:02.886Z,16.07
2019-01-11T02:55:03.235Z,17.03
2019-01-11T03:00:01.846Z,0
2019-01-11T03:05:02.381Z,0
2019-01-11T03:10:02.847Z,17.47
2019-01-11T03:15:03.201Z,12.30
2019-01-11T03:20:02.576Z,13.93
2019-01-11T03:25:02.906Z,17.40
2019-01-11T03:30:03.277Z,17.50
2019-01-11T03:35:02.669Z,11.97
2019-01-11T03:40:03.117Z,11.90
2019-01-11T03:45:02.589Z,16.73
2019-01-11T03:50:03.020Z,15.27
2019-01-11T03:55:02.439Z,14.17
2019-01-11T04:00:02.777Z,16.77
2019-01-11T04:05:03.113Z,20.27
2019-01-11T04:10:02.495Z,15.67
2019-01-11T04:15:02.943Z,13.87
2019-01-11T04:20:03.405Z,15.03
2019-01-11T04:25:02.814Z,18.15
2019-01-11T04:30:03.251Z,22.07
2019-01-11T04:35:02.659Z,13.48
2019-01-11T04:40:03.114Z,14.33
2019-01-11T04:45:02.527Z,14.60
2019-01-11T04:50:09.290Z,15.15
2019-01-11T04:55:03.123Z,15.27
2019-01-11T05:00:02.745Z,12.77
2019-01-11T05:05:03.104Z,23.90
2019-01-11T05:10:02.594Z,15.20
2019-01-11T05:15:02.948Z,18.23
2019-01-11T05:20:03.386Z,16.42
2019-01-11T05:25:02.799Z,16.87
2019-01-11T05:30:02.635Z,15.72
2019-01-11T05:35:03.106Z,16.30
2019-01-11T05:40:02.485Z,18.00
2019-01-11T05:45:02.838Z,23.62
2019-01-11T05:50:03.285Z,16.90
2019-01-11T05:55:02.616Z,16.50
2019-01-11T06:00:02.943Z,18.23
2019-01-11T06:05:03.379Z,16.97
2019-01-11T06:10:03.162Z,15.58
2019-01-11T06:15:02.658Z,18.37
2019-01-11T06:20:03.068Z,17.30
2019-01-11T06:25:02.496Z,15.53
2019-01-11T06:30:02.933Z,17.55
2019-01-11T06:35:03.274Z,16.15
2019-01-11T06:40:02.691Z,16.05
2019-01-11T06:45:03.070Z,18.60
2019-01-11T06:50:02.490Z,15.75
2019-01-11T06:55:02.816Z,15.00
2019-01-11T07:00:03.545Z,14.90
2019-01-11T07:05:02.965Z,16.30
2019-01-11T07:10:02.381Z,13.18
2019-01-11T07:15:02.725Z,12.78
2019-01-11T07:20:05.732Z,12.33
2019-01-11T07:25:03.301Z,13.03
2019-01-11T07:30:02.718Z,17.12
2019-01-11T07:35:03.066Z,11.75
2019-01-11T07:40:02.539Z,10.88
2019-01-11T07:45:02.927Z,12.37
2019-01-11T07:50:03.269Z,13.10
2019-01-11T07:55:02.692Z,12.05
2019-01-11T08:00:03.405Z,12.03
2019-01-11T08:05:02.775Z,13.50
2019-01-11T08:10:03.200Z,12.40
2019-01-11T08:15:02.607Z,12.30
2019-01-11T08:20:02.953Z,14.05
2019-01-11T08:25:03.303Z,13.28
2019-01-11T08:30:03.020Z,13.38
2019-01-11T08:35:02.365Z,11.08
2019-01-11T08:40:02.104Z,0
2019-01-11T08:45:02.447Z,12.35
2019-01-11T08:50:02.852Z,12.90
2019-01-11T08:55:03.293Z,12.53
2019-01-11T09:00:02.713Z,10.80
2019-01-11T09:05:03.190Z,12.95
2019-01-11T09:10:02.714Z,12.25
2019-01-11T09:15:03.135Z,13.90
2019-01-11T09:20:02.531Z,13.13
2019-01-11T09:25:02.882Z,11.45
2019-01-11T09:30:03.329Z,13.55
2019-01-11T09:35:02.738Z,13.68
2019-01-11T09:40:03.187Z,13.30
2019-01-11T09:45:02.600Z,11.48
2019-01-11T09:50:02.979Z,9.90
2019-01-11T09:55:02.367Z,11.73
2019-01-11T10:00:02.842Z,15.08
2019-01-11T10:05:03.249Z,14.40
2019-01-11T10:10:02.669Z,11.55
2019-01-11T10:15:03.011Z,12.37
2019-01-11T10:20:02.436Z,13.05
2019-01-11T10:25:02.878Z,12.85
2019-01-11T10:30:03.317Z,9.85
2019-01-11T10:35:02.641Z,9.20
2019-01-11T10:40:03.071Z,10.75
2019-01-11T10:45:02.497Z,7.92
2019-01-11T10:50:02.845Z,9.63
2019-01-11T10:55:03.187Z,9.18
2019-01-11T11:00:02.587Z,8.63
2019-01-11T11:05:02.948Z,8.98
2019-01-11T11:10:02.353Z,9.98
2019-01-11T11:15:02.698Z,8.45
2019-01-11T11:20:03.143Z,7.35
2019-01-11T11:25:02.551Z,7.67
2019-01-11T11:30:02.899Z,8.48
2019-01-11T11:35:03.251Z,9.50
2019-01-11T11:40:02.663Z,7.25
2019-01-11T11:45:03.036Z,6.58
2019-01-11T11:50:02.453Z,6.78
2019-01-11T11:55:02.862Z,7.08
2019-01-11T12:00:03.201Z,7.62
2019-01-11T12:05:02.623Z,5.90
2019-01-11T12:10:03.101Z,6.15
2019-01-11T12:15:02.515Z,6.20
2019-01-11T12:20:02.923Z,4.55
2019-01-11T12:25:03.274Z,5.65
2019-01-11T12:30:02.592Z,4.72
2019-01-11T12:35:02.929Z,11.08
2019-01-11T12:40:02.349Z,7.47
2019-01-11T12:45:02.699Z,6.92
2019-01-11T12:50:03.129Z,6.33
2019-01-11T12:55:02.555Z,4.87
2019-01-11T13:00:03.009Z,4.55
2019-01-11T13:05:02.413Z,4.30
2019-01-11T13:10:02.851Z,4.05
2019-01-11T13:15:03.232Z,4.10
2019-01-11T13:20:02.612Z,3.20
2019-01-11T13:25:02.961Z,4.00
2019-01-11T13:30:03.394Z,3.50
2019-01-11T13:35:02.822Z,3.45
2019-01-11T13:40:02.500Z,0
2019-01-11T13:45:02.881Z,3.72
2019-01-11T13:50:03.222Z,3.25
2019-01-11T13:55:02.654Z,3.60
2019-01-11T14:00:02.981Z,3.12
2019-01-11T14:05:02.351Z,2.98
2019-01-11T14:10:02.867Z,3.17
2019-01-11T14:15:03.306Z,3.22
2019-01-11T14:20:02.636Z,3.08
2019-01-11T14:25:03.052Z,5.00
2019-01-11T14:30:02.469Z,8.05
2019-01-11T14:35:02.837Z,3.60
2019-01-11T14:40:03.287Z,3.12
2019-01-11T14:45:02.705Z,3.25
2019-01-11T14:50:03.115Z,3.40
2019-01-11T14:55:02.542Z,3.00
2019-01-11T15:00:02.875Z,4.65
2019-01-11T15:05:03.215Z,3.15
2019-01-11T15:10:02.630Z,3.40
2019-01-11T15:15:02.975Z,3.30
2019-01-11T15:20:02.389Z,3.67
2019-01-11T15:25:02.859Z,4.05
2019-01-11T15:30:03.284Z,3.95
2019-01-11T15:35:02.709Z,4.20
2019-01-11T15:40:03.173Z,4.00
2019-01-11T15:45:02.568Z,4.47
2019-01-11T15:50:02.907Z,4.85
2019-01-11T15:55:03.244Z,5.53
2019-01-11T16:00:02.676Z,4.00
2019-01-11T16:05:03.108Z,3.72
2019-01-11T16:10:02.532Z,3.80
2019-01-11T16:15:02.967Z,4.10
2019-01-11T16:20:02.299Z,3.58
2019-01-11T16:25:02.732Z,3.58
2019-01-11T16:30:03.067Z,3.70
2019-01-11T16:35:02.501Z,3.75
2019-01-11T16:40:02.937Z,3.80
2019-01-11T16:45:03.278Z,3.90
2019-01-11T16:50:02.683Z,3.75
2019-01-11T16:55:03.043Z,4.05
2019-01-11T17:00:02.448Z,3.50
2019-01-11T17:05:02.819Z,3.67
2019-01-11T17:10:03.254Z,4.08
2019-01-11T17:15:02.655Z,3.30
2019-01-11T17:20:03.015Z,4.47
2019-01-11T17:25:02.416Z,4.42
2019-01-11T17:30:02.760Z,4.53
2019-01-11T17:35:03.209Z,4.08
2019-01-11T17:40:02.610Z,4.20
2019-01-11T17:45:03.004Z,3.50
2019-01-11T17:50:02.416Z,4.42
2019-01-11T17:55:02.826Z,6.33
2019-01-11T18:00:03.273Z,4.22
2019-01-11T18:05:02.695Z,3.40
2019-01-11T18:10:03.180Z,3.47
2019-01-11T18:15:02.633Z,3.60
2019-01-11T18:20:03.411Z,3.00
2019-01-11T18:25:02.820Z,3.12
2019-01-11T18:30:03.153Z,2.80
2019-01-11T18:35:02.579Z,3.45
2019-01-11T18:40:03.031Z,3.08
2019-01-11T18:45:02.444Z,3.77
2019-01-11T18:50:02.781Z,3.00
2019-01-11T18:55:03.169Z,3.98
2019-01-11T19:00:02.536Z,6.47
2019-01-11T19:05:02.889Z,8.05
2019-01-11T19:10:03.331Z,8.45
2019-01-11T19:15:02.745Z,5.00
2019-01-11T19:20:03.089Z,4.10
2019-01-11T19:25:02.551Z,4.75
2019-01-11T19:30:02.956Z,3.90
2019-01-11T19:35:03.395Z,3.72
2019-01-11T19:40:02.816Z,4.80
2019-01-11T19:45:03.161Z,5.08
2019-01-11T19:50:03.024Z,4.12
2019-01-11T19:55:02.423Z,4.17
2019-01-11T20:00:02.855Z,3.80
2019-01-11T20:05:03.294Z,3.52
2019-01-11T20:10:02.101Z,0
2019-01-11T20:15:02.585Z,3.70
2019-01-11T20:20:02.978Z,3.33
2019-01-11T20:25:02.454Z,3.60
2019-01-11T20:30:02.975Z,3.83
2019-01-11T20:35:02.411Z,3.95
2019-01-11T20:40:02.841Z,4.15
2019-01-11T20:45:03.250Z,3.37
2019-01-11T20:50:02.666Z,4.10
2019-01-11T20:55:03.033Z,4.75
2019-01-11T21:00:02.539Z,4.22
2019-01-11T21:05:02.878Z,4.20
2019-01-11T21:10:03.319Z,4.92
2019-01-11T21:15:02.727Z,4.12
2019-01-11T21:20:03.155Z,3.52
2019-01-11T21:25:02.498Z,4.20
2019-01-11T21:30:02.832Z,3.85
2019-01-11T21:35:03.184Z,3.75
2019-01-11T21:40:02.618Z,3.40
2019-01-11T21:45:03.062Z,3.80
2019-01-11T21:50:02.403Z,3.20
2019-01-11T21:55:02.809Z,3.17
2019-01-11T22:00:03.180Z,3.35
2019-01-11T22:05:02.557Z,3.08
2019-01-11T22:10:03.037Z,3.47
2019-01-11T22:15:02.448Z,3.05
2019-01-11T22:20:02.868Z,3.40
2019-01-11T22:25:03.212Z,3.30
2019-01-11T22:30:02.620Z,3.35
2019-01-11T22:35:02.967Z,3.17
2019-01-11T22:40:01.740Z,0
2019-01-11T22:45:03.057Z,3.45
2019-01-11T22:50:02.460Z,3.75
2019-01-11T22:55:02.904Z,3.47
2019-01-11T23:00:03.339Z,3.40
2019-01-11T23:05:02.759Z,3.67
2019-01-11T23:10:03.208Z,3.30
2019-01-11T23:15:02.628Z,3.67
2019-01-11T23:20:03.088Z,3.45
2019-01-11T23:25:02.439Z,3.20
2019-01-11T23:30:02.817Z,3.55
2019-01-11T23:35:03.164Z,3.85
2019-01-11T23:40:02.574Z,3.90
2019-01-11T23:45:02.920Z,3.67
2019-01-11T23:50:03.253Z,3.50
2019-01-11T23:55:02.686Z,3.67
